sensor_id;sensor_type;location;lat;lon;timestamp;temperature;humidity
14993;DHT22;7592;51.088;13.732;2023-07-13T00:02:24;22.90;94.60
14993;DHT22;7592;51.088;13.732;2023-07-13T00:07:16;23.00;95.70
14993;DHT22;7592;51.088;13.732;2023-07-13T00:12:31;22.90;95.30
14993;DHT22;7592;51.088;13.732;2023-07-13T00:17:24;22.80;96.70
14993;DHT22;7592;51.088;13.732;2023-07-13T00:22:16;22.90;97.90
14993;DHT22;7592;51.088;13.732;2023-07-13T00:27:10;22.90;98.30
14993;DHT22;7592;51.088;13.732;2023-07-13T00:32:06;22.90;98.30
14993;DHT22;7592;51.088;13.732;2023-07-13T00:36:58;22.90;99.40
14993;DHT22;7592;51.088;13.732;2023-07-13T00:41:51;22.90;99.50
14993;DHT22;7592;51.088;13.732;2023-07-13T00:46:44;22.90;99.00
14993;DHT22;7592;51.088;13.732;2023-07-13T00:51:51;23.00;98.30
14993;DHT22;7592;51.088;13.732;2023-07-13T00:56:45;23.00;99.90
14993;DHT22;7592;51.088;13.732;2023-07-13T01:01:38;22.70;99.90
14993;DHT22;7592;51.088;13.732;2023-07-13T01:06:31;22.60;99.90
14993;DHT22;7592;51.088;13.732;2023-07-13T01:13:02;22.40;99.90
14993;DHT22;7592;51.088;13.732;2023-07-13T01:38:25;21.80;99.90
14993;DHT22;7592;51.088;13.732;2023-07-13T01:51:36;21.60;99.90
14993;DHT22;7592;51.088;13.732;2023-07-13T02:02:23;21.50;99.90
14993;DHT22;7592;51.088;13.732;2023-07-13T02:13:55;21.10;99.90
14993;DHT22;7592;51.088;13.732;2023-07-13T02:18:47;21.00;99.90
14993;DHT22;7592;51.088;13.732;2023-07-13T02:23:39;21.10;99.90
14993;DHT22;7592;51.088;13.732;2023-07-13T02:28:32;21.00;99.90
14993;DHT22;7592;51.088;13.732;2023-07-13T02:33:24;20.90;99.90
14993;DHT22;7592;51.088;13.732;2023-07-13T02:38:16;20.90;99.90
14993;DHT22;7592;51.088;13.732;2023-07-13T02:43:08;20.80;99.90
14993;DHT22;7592;51.088;13.732;2023-07-13T02:48:00;20.80;99.90
14993;DHT22;7592;51.088;13.732;2023-07-13T02:52:53;20.90;99.90
14993;DHT22;7592;51.088;13.732;2023-07-13T02:57:46;20.90;99.90
14993;DHT22;7592;51.088;13.732;2023-07-13T03:02:38;20.80;99.90
14993;DHT22;7592;51.088;13.732;2023-07-13T03:07:31;20.70;99.90
14993;DHT22;7592;51.088;13.732;2023-07-13T03:12:25;20.70;99.90
14993;DHT22;7592;51.088;13.732;2023-07-13T03:17:18;20.60;99.90
14993;DHT22;7592;51.088;13.732;2023-07-13T03:22:10;20.50;99.90
14993;DHT22;7592;51.088;13.732;2023-07-13T03:27:05;20.40;99.90
14993;DHT22;7592;51.088;13.732;2023-07-13T03:32:00;20.50;99.90
14993;DHT22;7592;51.088;13.732;2023-07-13T03:36:56;20.40;99.90
14993;DHT22;7592;51.088;13.732;2023-07-13T03:41:48;20.50;99.90
14993;DHT22;7592;51.088;13.732;2023-07-13T03:46:41;20.50;99.90
14993;DHT22;7592;51.088;13.732;2023-07-13T03:51:33;20.50;99.90
14993;DHT22;7592;51.088;13.732;2023-07-13T03:56:25;20.70;99.90
14993;DHT22;7592;51.088;13.732;2023-07-13T04:01:21;20.80;99.90
14993;DHT22;7592;51.088;13.732;2023-07-13T04:06:20;21.00;99.90
14993;DHT22;7592;51.088;13.732;2023-07-13T04:11:13;21.10;99.90
14993;DHT22;7592;51.088;13.732;2023-07-13T04:16:05;21.10;99.90
14993;DHT22;7592;51.088;13.732;2023-07-13T04:20:57;21.40;99.90
14993;DHT22;7592;51.088;13.732;2023-07-13T04:25:52;22.00;99.90
14993;DHT22;7592;51.088;13.732;2023-07-13T04:30:47;22.20;99.90
14993;DHT22;7592;51.088;13.732;2023-07-13T04:35:39;22.20;99.90
14993;DHT22;7592;51.088;13.732;2023-07-13T04:40:31;22.10;99.90
14993;DHT22;7592;51.088;13.732;2023-07-13T04:45:24;21.90;99.90
14993;DHT22;7592;51.088;13.732;2023-07-13T04:50:16;21.90;99.90
14993;DHT22;7592;51.088;13.732;2023-07-13T04:55:16;22.00;99.90
14993;DHT22;7592;51.088;13.732;2023-07-13T05:00:09;22.20;99.90
14993;DHT22;7592;51.088;13.732;2023-07-13T05:05:02;23.50;99.90
14993;DHT22;7592;51.088;13.732;2023-07-13T05:09:55;27.40;99.90
14993;DHT22;7592;51.088;13.732;2023-07-13T05:14:47;31.00;96.30
14993;DHT22;7592;51.088;13.732;2023-07-13T05:19:41;33.50;80.00
14993;DHT22;7592;51.088;13.732;2023-07-13T05:24:33;32.20;77.40
14993;DHT22;7592;51.088;13.732;2023-07-13T05:29:25;30.50;79.60
14993;DHT22;7592;51.088;13.732;2023-07-13T05:34:18;29.00;83.40
14993;DHT22;7592;51.088;13.732;2023-07-13T05:39:11;28.00;87.80
14993;DHT22;7592;51.088;13.732;2023-07-13T05:44:03;27.50;90.20
14993;DHT22;7592;51.088;13.732;2023-07-13T05:48:55;29.20;85.70
14993;DHT22;7592;51.088;13.732;2023-07-13T05:53:48;31.70;79.30
14993;DHT22;7592;51.088;13.732;2023-07-13T05:58:41;35.50;67.10
14993;DHT22;7592;51.088;13.732;2023-07-13T06:03:34;38.00;57.80
14993;DHT22;7592;51.088;13.732;2023-07-13T06:08:27;39.80;53.70
14993;DHT22;7592;51.088;13.732;2023-07-13T06:13:19;40.70;50.40
14993;DHT22;7592;51.088;13.732;2023-07-13T06:18:11;40.80;50.10
14993;DHT22;7592;51.088;13.732;2023-07-13T06:23:03;42.30;47.40
14993;DHT22;7592;51.088;13.732;2023-07-13T06:27:56;41.90;47.60
14993;DHT22;7592;51.088;13.732;2023-07-13T06:32:48;37.80;51.20
14993;DHT22;7592;51.088;13.732;2023-07-13T06:37:40;34.90;53.40
14993;DHT22;7592;51.088;13.732;2023-07-13T06:42:33;32.80;56.90
14993;DHT22;7592;51.088;13.732;2023-07-13T06:47:25;31.80;59.10
14993;DHT22;7592;51.088;13.732;2023-07-13T06:52:17;34.70;56.50
14993;DHT22;7592;51.088;13.732;2023-07-13T06:57:09;39.60;50.10
14993;DHT22;7592;51.088;13.732;2023-07-13T07:02:01;39.60;49.10
14993;DHT22;7592;51.088;13.732;2023-07-13T07:07:01;37.60;51.20
14993;DHT22;7592;51.088;13.732;2023-07-13T07:11:53;38.00;51.60
14993;DHT22;7592;51.088;13.732;2023-07-13T07:16:55;41.70;47.70
14993;DHT22;7592;51.088;13.732;2023-07-13T07:21:47;38.30;49.80
14993;DHT22;7592;51.088;13.732;2023-07-13T07:26:39;37.20;51.50
14993;DHT22;7592;51.088;13.732;2023-07-13T07:31:34;38.70;49.40
14993;DHT22;7592;51.088;13.732;2023-07-13T07:36:46;40.00;47.90
14993;DHT22;7592;51.088;13.732;2023-07-13T07:41:41;37.30;47.60
14993;DHT22;7592;51.088;13.732;2023-07-13T07:46:48;34.60;51.30
14993;DHT22;7592;51.088;13.732;2023-07-13T07:51:41;34.80;53.50
14993;DHT22;7592;51.088;13.732;2023-07-13T07:56:33;38.80;46.90
14993;DHT22;7592;51.088;13.732;2023-07-13T08:01:30;38.80;46.10
14993;DHT22;7592;51.088;13.732;2023-07-13T08:06:26;38.30;46.40
14993;DHT22;7592;51.088;13.732;2023-07-13T08:11:22;39.10;46.80
14993;DHT22;7592;51.088;13.732;2023-07-13T08:16:20;40.40;44.40
14993;DHT22;7592;51.088;13.732;2023-07-13T08:21:12;40.80;44.60
14993;DHT22;7592;51.088;13.732;2023-07-13T08:26:05;42.80;42.40
14993;DHT22;7592;51.088;13.732;2023-07-13T08:31:04;45.20;40.20
14993;DHT22;7592;51.088;13.732;2023-07-13T08:35:56;46.50;38.40
14993;DHT22;7592;51.088;13.732;2023-07-13T08:40:52;44.80;38.70
14993;DHT22;7592;51.088;13.732;2023-07-13T08:45:52;44.10;39.80
14993;DHT22;7592;51.088;13.732;2023-07-13T08:51:04;42.10;41.30
14993;DHT22;7592;51.088;13.732;2023-07-13T08:56:01;41.20;41.80
14993;DHT22;7592;51.088;13.732;2023-07-13T09:01:14;39.40;42.30
14993;DHT22;7592;51.088;13.732;2023-07-13T09:06:11;37.50;44.80
14993;DHT22;7592;51.088;13.732;2023-07-13T09:11:46;36.50;46.60
14993;DHT22;7592;51.088;13.732;2023-07-13T09:16:41;36.70;46.40
14993;DHT22;7592;51.088;13.732;2023-07-13T09:21:37;38.50;45.20
14993;DHT22;7592;51.088;13.732;2023-07-13T09:26:32;41.70;42.30
14993;DHT22;7592;51.088;13.732;2023-07-13T09:31:43;43.10;39.30
14993;DHT22;7592;51.088;13.732;2023-07-13T09:36:37;40.50;41.40
14993;DHT22;7592;51.088;13.732;2023-07-13T09:46:45;40.00;43.30
14993;DHT22;7592;51.088;13.732;2023-07-13T09:51:40;42.60;40.90
14993;DHT22;7592;51.088;13.732;2023-07-13T09:56:32;42.80;39.70
14993;DHT22;7592;51.088;13.732;2023-07-13T10:01:34;41.80;40.80
14993;DHT22;7592;51.088;13.732;2023-07-13T10:06:26;43.40;38.20
14993;DHT22;7592;51.088;13.732;2023-07-13T10:11:22;44.50;38.10
14993;DHT22;7592;51.088;13.732;2023-07-13T10:16:15;44.80;36.90
14993;DHT22;7592;51.088;13.732;2023-07-13T10:21:20;42.70;38.10
14993;DHT22;7592;51.088;13.732;2023-07-13T10:26:31;39.20;40.30
14993;DHT22;7592;51.088;13.732;2023-07-13T10:31:24;36.10;43.80
14993;DHT22;7592;51.088;13.732;2023-07-13T10:36:49;36.60;44.80
14993;DHT22;7592;51.088;13.732;2023-07-13T10:41:42;38.50;41.60
14993;DHT22;7592;51.088;13.732;2023-07-13T10:46:36;39.10;41.80
14993;DHT22;7592;51.088;13.732;2023-07-13T10:51:37;40.60;40.50
14993;DHT22;7592;51.088;13.732;2023-07-13T10:56:30;40.10;40.30
14993;DHT22;7592;51.088;13.732;2023-07-13T11:01:24;40.60;40.00
14993;DHT22;7592;51.088;13.732;2023-07-13T11:21:25;35.10;45.10
14993;DHT22;7592;51.088;13.732;2023-07-13T11:26:42;35.30;46.20
14993;DHT22;7592;51.088;13.732;2023-07-13T11:31:35;39.00;42.00
14993;DHT22;7592;51.088;13.732;2023-07-13T11:36:30;38.10;42.40
14993;DHT22;7592;51.088;13.732;2023-07-13T11:41:37;37.00;43.60
14993;DHT22;7592;51.088;13.732;2023-07-13T11:46:34;35.60;44.30
14993;DHT22;7592;51.088;13.732;2023-07-13T11:51:31;34.80;45.70
14993;DHT22;7592;51.088;13.732;2023-07-13T11:56:25;34.30;47.20
14993;DHT22;7592;51.088;13.732;2023-07-13T12:01:30;34.30;47.90
14993;DHT22;7592;51.088;13.732;2023-07-13T12:06:28;34.30;46.70
14993;DHT22;7592;51.088;13.732;2023-07-13T12:11:20;34.00;47.40
14993;DHT22;7592;51.088;13.732;2023-07-13T12:16:31;33.60;46.80
14993;DHT22;7592;51.088;13.732;2023-07-13T12:21:41;32.80;48.10
14993;DHT22;7592;51.088;13.732;2023-07-13T12:26:34;32.50;47.30
14993;DHT22;7592;51.088;13.732;2023-07-13T12:36:23;31.00;51.10
14993;DHT22;7592;51.088;13.732;2023-07-13T12:41:15;31.30;50.00
14993;DHT22;7592;51.088;13.732;2023-07-13T12:46:23;31.90;49.50
14993;DHT22;7592;51.088;13.732;2023-07-13T12:51:16;32.80;48.30
14993;DHT22;7592;51.088;13.732;2023-07-13T12:56:23;33.40;47.80
14993;DHT22;7592;51.088;13.732;2023-07-13T13:01:17;33.50;46.70
14993;DHT22;7592;51.088;13.732;2023-07-13T13:11:07;32.60;46.00
14993;DHT22;7592;51.088;13.732;2023-07-13T13:16:20;32.20;46.70
14993;DHT22;7592;51.088;13.732;2023-07-13T13:21:14;31.70;47.60
14993;DHT22;7592;51.088;13.732;2023-07-13T13:26:14;31.50;47.40
14993;DHT22;7592;51.088;13.732;2023-07-13T13:31:10;31.40;48.10
14993;DHT22;7592;51.088;13.732;2023-07-13T13:36:04;31.00;48.50
14993;DHT22;7592;51.088;13.732;2023-07-13T13:40:57;31.00;49.40
14993;DHT22;7592;51.088;13.732;2023-07-13T13:45:49;30.90;48.80
14993;DHT22;7592;51.088;13.732;2023-07-13T13:50:41;30.90;49.10
14993;DHT22;7592;51.088;13.732;2023-07-13T13:55:34;30.90;49.50
14993;DHT22;7592;51.088;13.732;2023-07-13T14:00:27;30.80;49.50
14993;DHT22;7592;51.088;13.732;2023-07-13T14:05:28;30.40;49.00
14993;DHT22;7592;51.088;13.732;2023-07-13T14:10:42;30.60;49.10
14993;DHT22;7592;51.088;13.732;2023-07-13T14:16:17;30.80;49.40
14993;DHT22;7592;51.088;13.732;2023-07-13T14:21:17;30.80;49.80
14993;DHT22;7592;51.088;13.732;2023-07-13T14:26:22;30.90;48.40
14993;DHT22;7592;51.088;13.732;2023-07-13T14:31:16;30.60;48.90
14993;DHT22;7592;51.088;13.732;2023-07-13T14:36:28;30.50;50.80
14993;DHT22;7592;51.088;13.732;2023-07-13T14:41:22;30.20;50.30
14993;DHT22;7592;51.088;13.732;2023-07-13T14:46:40;30.10;50.60
14993;DHT22;7592;51.088;13.732;2023-07-13T14:51:34;30.10;50.20
14993;DHT22;7592;51.088;13.732;2023-07-13T14:56:26;29.80;50.50
14993;DHT22;7592;51.088;13.732;2023-07-13T15:01:20;29.60;50.40
14993;DHT22;7592;51.088;13.732;2023-07-13T15:06:15;29.30;50.20
14993;DHT22;7592;51.088;13.732;2023-07-13T15:11:08;29.30;50.10
14993;DHT22;7592;51.088;13.732;2023-07-13T15:16:03;29.40;50.30
14993;DHT22;7592;51.088;13.732;2023-07-13T15:20:56;29.50;50.50
14993;DHT22;7592;51.088;13.732;2023-07-13T15:25:52;29.40;50.20
14993;DHT22;7592;51.088;13.732;2023-07-13T15:30:47;29.20;49.90
14993;DHT22;7592;51.088;13.732;2023-07-13T15:35:40;29.20;50.60
14993;DHT22;7592;51.088;13.732;2023-07-13T15:40:34;29.00;49.80
14993;DHT22;7592;51.088;13.732;2023-07-13T15:45:26;28.90;49.60
14993;DHT22;7592;51.088;13.732;2023-07-13T15:50:23;28.70;49.40
14993;DHT22;7592;51.088;13.732;2023-07-13T15:55:16;28.70;49.00
14993;DHT22;7592;51.088;13.732;2023-07-13T16:00:20;28.60;48.70
14993;DHT22;7592;51.088;13.732;2023-07-13T16:05:13;28.50;48.80
14993;DHT22;7592;51.088;13.732;2023-07-13T16:10:13;28.70;48.20
14993;DHT22;7592;51.088;13.732;2023-07-13T16:15:16;28.50;48.50
14993;DHT22;7592;51.088;13.732;2023-07-13T16:20:10;28.30;48.60
14993;DHT22;7592;51.088;13.732;2023-07-13T16:25:15;28.10;48.70
14993;DHT22;7592;51.088;13.732;2023-07-13T16:30:17;27.90;50.00
14993;DHT22;7592;51.088;13.732;2023-07-13T16:35:10;27.90;49.30
14993;DHT22;7592;51.088;13.732;2023-07-13T16:40:21;27.90;48.70
14993;DHT22;7592;51.088;13.732;2023-07-13T16:45:14;27.70;49.10
14993;DHT22;7592;51.088;13.732;2023-07-13T16:50:15;27.50;49.60
14993;DHT22;7592;51.088;13.732;2023-07-13T16:55:15;27.30;49.90
14993;DHT22;7592;51.088;13.732;2023-07-13T17:00:18;27.10;50.00
14993;DHT22;7592;51.088;13.732;2023-07-13T17:05:11;27.10;50.10
14993;DHT22;7592;51.088;13.732;2023-07-13T17:10:20;27.20;50.40
14993;DHT22;7592;51.088;13.732;2023-07-13T17:15:14;27.20;50.40
14993;DHT22;7592;51.088;13.732;2023-07-13T17:25:17;26.70;50.70
14993;DHT22;7592;51.088;13.732;2023-07-13T17:30:19;26.50;51.00
14993;DHT22;7592;51.088;13.732;2023-07-13T17:35:29;26.50;51.00
14993;DHT22;7592;51.088;13.732;2023-07-13T17:40:22;26.50;50.90
14993;DHT22;7592;51.088;13.732;2023-07-13T17:45:15;26.50;51.10
14993;DHT22;7592;51.088;13.732;2023-07-13T17:50:16;26.50;51.10
14993;DHT22;7592;51.088;13.732;2023-07-13T17:55:18;26.60;50.70
14993;DHT22;7592;51.088;13.732;2023-07-13T18:00:15;26.70;51.40
14993;DHT22;7592;51.088;13.732;2023-07-13T18:05:24;26.60;51.20
14993;DHT22;7592;51.088;13.732;2023-07-13T18:10:20;26.30;51.30
14993;DHT22;7592;51.088;13.732;2023-07-13T18:15:15;26.10;52.30
14993;DHT22;7592;51.088;13.732;2023-07-13T18:20:15;25.90;52.50
14993;DHT22;7592;51.088;13.732;2023-07-13T18:25:17;25.60;53.20
14993;DHT22;7592;51.088;13.732;2023-07-13T18:30:17;25.30;53.60
14993;DHT22;7592;51.088;13.732;2023-07-13T18:35:20;25.10;54.40
14993;DHT22;7592;51.088;13.732;2023-07-13T18:40:15;24.90;55.20
14993;DHT22;7592;51.088;13.732;2023-07-13T18:45:12;24.70;54.70
14993;DHT22;7592;51.088;13.732;2023-07-13T18:50:16;24.50;55.70
14993;DHT22;7592;51.088;13.732;2023-07-13T18:55:14;24.30;55.80
14993;DHT22;7592;51.088;13.732;2023-07-13T19:00:12;24.10;56.60
14993;DHT22;7592;51.088;13.732;2023-07-13T19:05:13;23.80;57.50
14993;DHT22;7592;51.088;13.732;2023-07-13T19:10:13;23.60;58.10
14993;DHT22;7592;51.088;13.732;2023-07-13T19:15:26;23.50;59.00
14993;DHT22;7592;51.088;13.732;2023-07-13T19:20:19;23.30;60.00
14993;DHT22;7592;51.088;13.732;2023-07-13T19:25:15;23.10;59.90
14993;DHT22;7592;51.088;13.732;2023-07-13T19:30:12;22.90;61.10
14993;DHT22;7592;51.088;13.732;2023-07-13T19:35:08;22.80;62.50
14993;DHT22;7592;51.088;13.732;2023-07-13T19:40:00;22.60;62.70
14993;DHT22;7592;51.088;13.732;2023-07-13T19:44:57;22.40;62.20
14993;DHT22;7592;51.088;13.732;2023-07-13T19:49:51;22.30;62.70
14993;DHT22;7592;51.088;13.732;2023-07-13T19:54:43;22.20;63.10
14993;DHT22;7592;51.088;13.732;2023-07-13T19:59:39;22.20;63.30
14993;DHT22;7592;51.088;13.732;2023-07-13T20:04:31;22.00;63.60
14993;DHT22;7592;51.088;13.732;2023-07-13T20:09:25;21.90;64.40
14993;DHT22;7592;51.088;13.732;2023-07-13T20:14:33;21.90;65.00
14993;DHT22;7592;51.088;13.732;2023-07-13T20:19:33;21.80;65.10
14993;DHT22;7592;51.088;13.732;2023-07-13T20:24:26;21.60;66.10
14993;DHT22;7592;51.088;13.732;2023-07-13T20:29:18;21.50;66.90
14993;DHT22;7592;51.088;13.732;2023-07-13T20:34:25;21.40;67.60
14993;DHT22;7592;51.088;13.732;2023-07-13T20:39:20;21.20;68.40
14993;DHT22;7592;51.088;13.732;2023-07-13T20:44:15;21.10;68.30
14993;DHT22;7592;51.088;13.732;2023-07-13T20:49:09;21.10;69.70
14993;DHT22;7592;51.088;13.732;2023-07-13T20:54:03;21.10;71.00
14993;DHT22;7592;51.088;13.732;2023-07-13T20:58:55;21.20;72.30
14993;DHT22;7592;51.088;13.732;2023-07-13T21:03:47;21.20;71.50
14993;DHT22;7592;51.088;13.732;2023-07-13T21:08:41;21.10;71.70
14993;DHT22;7592;51.088;13.732;2023-07-13T21:13:33;21.00;71.30
14993;DHT22;7592;51.088;13.732;2023-07-13T21:18:25;21.00;70.90
14993;DHT22;7592;51.088;13.732;2023-07-13T21:23:38;20.90;71.10
14993;DHT22;7592;51.088;13.732;2023-07-13T21:28:35;20.90;71.50
14993;DHT22;7592;51.088;13.732;2023-07-13T21:33:28;21.00;72.00
14993;DHT22;7592;51.088;13.732;2023-07-13T21:38:35;21.00;71.70
14993;DHT22;7592;51.088;13.732;2023-07-13T21:43:29;20.90;72.10
14993;DHT22;7592;51.088;13.732;2023-07-13T21:48:22;20.80;72.90
14993;DHT22;7592;51.088;13.732;2023-07-13T21:58:23;20.90;73.70
14993;DHT22;7592;51.088;13.732;2023-07-13T22:08:14;20.80;74.50
14993;DHT22;7592;51.088;13.732;2023-07-13T22:13:07;20.80;75.00
14993;DHT22;7592;51.088;13.732;2023-07-13T22:18:02;20.70;75.20
14993;DHT22;7592;51.088;13.732;2023-07-13T22:22:54;20.70;76.30
14993;DHT22;7592;51.088;13.732;2023-07-13T22:27:46;20.60;76.20
14993;DHT22;7592;51.088;13.732;2023-07-13T22:32:39;20.60;76.80
14993;DHT22;7592;51.088;13.732;2023-07-13T22:37:32;20.50;77.30
14993;DHT22;7592;51.088;13.732;2023-07-13T22:42:24;20.50;78.20
14993;DHT22;7592;51.088;13.732;2023-07-13T22:47:16;20.50;78.50
14993;DHT22;7592;51.088;13.732;2023-07-13T22:52:12;20.40;79.00
14993;DHT22;7592;51.088;13.732;2023-07-13T22:57:04;20.20;80.80
14993;DHT22;7592;51.088;13.732;2023-07-13T23:01:56;20.10;82.10
14993;DHT22;7592;51.088;13.732;2023-07-13T23:06:49;20.00;83.50
14993;DHT22;7592;51.088;13.732;2023-07-13T23:11:45;20.00;84.70
14993;DHT22;7592;51.088;13.732;2023-07-13T23:16:37;20.10;85.70
14993;DHT22;7592;51.088;13.732;2023-07-13T23:21:31;20.20;86.20
14993;DHT22;7592;51.088;13.732;2023-07-13T23:26:25;20.10;87.70
14993;DHT22;7592;51.088;13.732;2023-07-13T23:31:24;20.10;88.80
14993;DHT22;7592;51.088;13.732;2023-07-13T23:36:18;20.10;89.40
14993;DHT22;7592;51.088;13.732;2023-07-13T23:41:12;20.20;90.40
14993;DHT22;7592;51.088;13.732;2023-07-13T23:46:25;20.10;91.00
14993;DHT22;7592;51.088;13.732;2023-07-13T23:51:21;20.00;91.90
14993;DHT22;7592;51.088;13.732;2023-07-13T23:56:19;19.80;92.80
